sensor_id;sensor_type;location;lat;lon;timestamp;pressure;altitude;pressure_sealevel;temperature;humidity
8229;BME280;4155;50.118;8.714;2022-08-19T00:01:23;99684.84;;;22.31;65.29
8229;BME280;4155;50.118;8.714;2022-08-19T00:03:55;99694.47;;;22.23;66.02
8229;BME280;4155;50.118;8.714;2022-08-19T00:06:23;99695.84;;;22.15;66.24
8229;BME280;4155;50.118;8.714;2022-08-19T00:08:51;99701.59;;;22.14;66.52
8229;BME280;4155;50.118;8.714;2022-08-19T00:11:23;99698.34;;;22.12;66.65
8229;BME280;4155;50.118;8.714;2022-08-19T00:13:51;99694.53;;;22.08;66.68
8229;BME280;4155;50.118;8.714;2022-08-19T00:16:24;99687.97;;;22.09;67.08
8229;BME280;4155;50.118;8.714;2022-08-19T00:18:53;99688.50;;;22.06;67.09
8229;BME280;4155;50.118;8.714;2022-08-19T00:21:22;99680.31;;;22.06;66.93
8229;BME280;4155;50.118;8.714;2022-08-19T00:23:49;99676.75;;;22.05;66.97
8229;BME280;4155;50.118;8.714;2022-08-19T00:26:17;99669.66;;;22.09;66.90
8229;BME280;4155;50.118;8.714;2022-08-19T00:28:46;99671.56;;;22.09;66.54
8229;BME280;4155;50.118;8.714;2022-08-19T00:33:42;99662.28;;;22.05;66.50
8229;BME280;4155;50.118;8.714;2022-08-19T00:36:11;99669.94;;;22.03;66.97
8229;BME280;4155;50.118;8.714;2022-08-19T00:38:39;99665.00;;;22.15;66.90
8229;BME280;4155;50.118;8.714;2022-08-19T00:41:11;99666.41;;;22.07;67.16
8229;BME280;4155;50.118;8.714;2022-08-19T00:43:41;99658.19;;;22.07;67.34
8229;BME280;4155;50.118;8.714;2022-08-19T00:46:10;99659.56;;;22.05;67.38
8229;BME280;4155;50.118;8.714;2022-08-19T00:48:37;99655.19;;;22.09;67.02
8229;BME280;4155;50.118;8.714;2022-08-19T00:51:05;99663.09;;;22.05;67.21
8229;BME280;4155;50.118;8.714;2022-08-19T00:53:34;99654.09;;;22.05;67.30
8229;BME280;4155;50.118;8.714;2022-08-19T00:56:02;99654.91;;;22.05;67.31
8229;BME280;4155;50.118;8.714;2022-08-19T00:58:34;99645.66;;;22.01;67.22
8229;BME280;4155;50.118;8.714;2022-08-19T01:01:03;99646.41;;;22.17;67.06
8229;BME280;4155;50.118;8.714;2022-08-19T01:03:33;99638.25;;;22.12;66.69
8229;BME280;4155;50.118;8.714;2022-08-19T01:06:20;99641.53;;;22.09;66.94
8229;BME280;4155;50.118;8.714;2022-08-19T01:08:48;99638.00;;;22.03;67.33
8229;BME280;4155;50.118;8.714;2022-08-19T01:11:16;99628.41;;;22.06;67.50
8229;BME280;4155;50.118;8.714;2022-08-19T01:13:45;99638.00;;;21.98;67.26
8229;BME280;4155;50.118;8.714;2022-08-19T01:16:17;99635.56;;;22.02;67.30
8229;BME280;4155;50.118;8.714;2022-08-19T01:18:47;99632.00;;;22.06;67.33
8229;BME280;4155;50.118;8.714;2022-08-19T01:21:20;99638.78;;;22.09;67.01
8229;BME280;4155;50.118;8.714;2022-08-19T01:23:50;99640.41;;;22.15;66.96
8229;BME280;4155;50.118;8.714;2022-08-19T01:26:21;99633.88;;;22.11;66.61
8229;BME280;4155;50.118;8.714;2022-08-19T01:28:51;99642.56;;;22.18;66.36
8229;BME280;4155;50.118;8.714;2022-08-19T01:31:26;99634.09;;;22.19;66.24
8229;BME280;4155;50.118;8.714;2022-08-19T01:34:00;99638.50;;;22.10;67.08
8229;BME280;4155;50.118;8.714;2022-08-19T01:36:30;99632.00;;;22.01;67.00
8229;BME280;4155;50.118;8.714;2022-08-19T01:39:00;99626.25;;;22.08;67.04
8229;BME280;4155;50.118;8.714;2022-08-19T01:41:30;99622.16;;;22.00;67.06
8229;BME280;4155;50.118;8.714;2022-08-19T01:43:58;99616.72;;;21.95;67.45
8229;BME280;4155;50.118;8.714;2022-08-19T01:46:43;99633.63;;;22.07;67.03
8229;BME280;4155;50.118;8.714;2022-08-19T01:49:11;99623.78;;;22.06;67.36
8229;BME280;4155;50.118;8.714;2022-08-19T01:51:39;99630.06;;;22.07;66.86
8229;BME280;4155;50.118;8.714;2022-08-19T01:54:09;99628.97;;;22.08;66.84
8229;BME280;4155;50.118;8.714;2022-08-19T01:56:37;99623.50;;;22.08;67.23
8229;BME280;4155;50.118;8.714;2022-08-19T01:59:10;99625.97;;;22.04;66.92
8229;BME280;4155;50.118;8.714;2022-08-19T02:01:38;99632.25;;;22.05;67.43
8229;BME280;4155;50.118;8.714;2022-08-19T02:04:06;99629.50;;;22.05;67.02
8229;BME280;4155;50.118;8.714;2022-08-19T02:06:34;99629.00;;;22.03;67.05
8229;BME280;4155;50.118;8.714;2022-08-19T02:09:03;99632.53;;;21.98;67.48
8229;BME280;4155;50.118;8.714;2022-08-19T02:11:34;99634.72;;;22.06;67.13
8229;BME280;4155;50.118;8.714;2022-08-19T02:14:04;99634.97;;;22.05;67.31
8229;BME280;4155;50.118;8.714;2022-08-19T02:16:33;99630.09;;;21.97;67.90
8229;BME280;4155;50.118;8.714;2022-08-19T02:19:02;99636.69;;;21.90;67.58
8229;BME280;4155;50.118;8.714;2022-08-19T02:21:29;99644.38;;;21.83;68.16
8229;BME280;4155;50.118;8.714;2022-08-19T02:23:58;99655.78;;;21.95;67.59
8229;BME280;4155;50.118;8.714;2022-08-19T02:26:26;99659.38;;;21.86;68.52
8229;BME280;4155;50.118;8.714;2022-08-19T02:28:55;99661.84;;;21.82;68.28
8229;BME280;4155;50.118;8.714;2022-08-19T02:31:24;99659.13;;;21.77;68.70
8229;BME280;4155;50.118;8.714;2022-08-19T02:33:54;99659.66;;;21.84;68.41
8229;BME280;4155;50.118;8.714;2022-08-19T02:36:23;99668.09;;;21.88;68.45
8229;BME280;4155;50.118;8.714;2022-08-19T02:38:51;99661.28;;;21.85;68.63
8229;BME280;4155;50.118;8.714;2022-08-19T02:41:23;99657.50;;;21.76;68.93
8229;BME280;4155;50.118;8.714;2022-08-19T02:43:53;99658.56;;;21.85;68.79
8229;BME280;4155;50.118;8.714;2022-08-19T02:46:42;99656.44;;;21.72;68.78
8229;BME280;4155;50.118;8.714;2022-08-19T02:49:11;99660.50;;;21.75;68.53
8229;BME280;4155;50.118;8.714;2022-08-19T02:51:41;99656.09;;;21.79;68.82
8229;BME280;4155;50.118;8.714;2022-08-19T02:54:10;99655.56;;;21.77;69.18
8229;BME280;4155;50.118;8.714;2022-08-19T02:56:40;99659.91;;;21.88;68.25
8229;BME280;4155;50.118;8.714;2022-08-19T02:59:08;99671.91;;;21.87;69.04
8229;BME280;4155;50.118;8.714;2022-08-19T03:01:40;99664.00;;;21.90;68.53
8229;BME280;4155;50.118;8.714;2022-08-19T03:04:11;99673.25;;;21.89;69.16
8229;BME280;4155;50.118;8.714;2022-08-19T03:06:41;99657.97;;;21.93;68.72
8229;BME280;4155;50.118;8.714;2022-08-19T03:09:10;99655.28;;;21.78;69.22
8229;BME280;4155;50.118;8.714;2022-08-19T03:11:38;99654.19;;;21.79;69.29
8229;BME280;4155;50.118;8.714;2022-08-19T03:14:07;99656.69;;;21.76;69.66
8229;BME280;4155;50.118;8.714;2022-08-19T03:16:43;99654.47;;;21.78;70.08
8229;BME280;4155;50.118;8.714;2022-08-19T03:19:13;99661.06;;;21.72;69.69
8229;BME280;4155;50.118;8.714;2022-08-19T03:21:42;99665.41;;;21.78;69.92
8229;BME280;4155;50.118;8.714;2022-08-19T03:24:12;99674.72;;;21.72;69.99
8229;BME280;4155;50.118;8.714;2022-08-19T03:26:41;99667.31;;;21.77;69.94
8229;BME280;4155;50.118;8.714;2022-08-19T03:29:09;99666.53;;;21.72;70.36
8229;BME280;4155;50.118;8.714;2022-08-19T03:31:40;99667.88;;;21.74;70.14
8229;BME280;4155;50.118;8.714;2022-08-19T03:34:21;99677.97;;;21.74;70.33
8229;BME280;4155;50.118;8.714;2022-08-19T03:36:52;99678.78;;;21.69;70.67
8229;BME280;4155;50.118;8.714;2022-08-19T03:39:22;99674.44;;;21.73;70.51
8229;BME280;4155;50.118;8.714;2022-08-19T03:41:53;99670.84;;;21.78;70.16
8229;BME280;4155;50.118;8.714;2022-08-19T03:44:43;99666.50;;;21.77;70.10
8229;BME280;4155;50.118;8.714;2022-08-19T03:47:12;99673.06;;;21.76;69.96
8229;BME280;4155;50.118;8.714;2022-08-19T03:49:44;99675.53;;;21.67;70.54
8229;BME280;4155;50.118;8.714;2022-08-19T03:52:12;99667.06;;;21.69;70.14
8229;BME280;4155;50.118;8.714;2022-08-19T03:54:40;99663.31;;;21.59;70.99
8229;BME280;4155;50.118;8.714;2022-08-19T03:57:08;99672.81;;;21.67;70.34
8229;BME280;4155;50.118;8.714;2022-08-19T03:59:37;99675.28;;;21.63;70.61
8229;BME280;4155;50.118;8.714;2022-08-19T04:02:08;99671.50;;;21.59;70.67
8229;BME280;4155;50.118;8.714;2022-08-19T04:04:37;99670.38;;;21.55;70.57
8229;BME280;4155;50.118;8.714;2022-08-19T04:07:06;99676.13;;;21.54;70.44
8229;BME280;4155;50.118;8.714;2022-08-19T04:09:35;99672.63;;;21.48;70.75
8229;BME280;4155;50.118;8.714;2022-08-19T04:12:04;99680.50;;;21.45;71.71
8229;BME280;4155;50.118;8.714;2022-08-19T04:14:34;99680.53;;;21.50;71.17
8229;BME280;4155;50.118;8.714;2022-08-19T04:17:02;99679.72;;;21.34;71.47
8229;BME280;4155;50.118;8.714;2022-08-19T04:19:32;99679.44;;;21.41;71.56
8229;BME280;4155;50.118;8.714;2022-08-19T04:22:00;99681.63;;;21.39;71.32
8229;BME280;4155;50.118;8.714;2022-08-19T04:24:30;99685.72;;;21.41;70.92
8229;BME280;4155;50.118;8.714;2022-08-19T04:26:59;99689.25;;;21.36;71.58
8229;BME280;4155;50.118;8.714;2022-08-19T04:29:27;99681.91;;;21.32;71.65
8229;BME280;4155;50.118;8.714;2022-08-19T04:31:57;99680.25;;;21.41;71.49
8229;BME280;4155;50.118;8.714;2022-08-19T04:34:27;99680.00;;;21.32;71.51
8229;BME280;4155;50.118;8.714;2022-08-19T04:36:57;99663.63;;;21.32;71.61
8229;BME280;4155;50.118;8.714;2022-08-19T04:39:30;99672.63;;;21.33;71.13
8229;BME280;4155;50.118;8.714;2022-08-19T04:42:15;99677.53;;;21.41;71.61
8229;BME280;4155;50.118;8.714;2022-08-19T04:45:00;99687.09;;;21.39;70.91
8229;BME280;4155;50.118;8.714;2022-08-19T04:47:30;99689.00;;;21.38;71.21
8229;BME280;4155;50.118;8.714;2022-08-19T04:50:19;99690.88;;;21.43;70.81
8229;BME280;4155;50.118;8.714;2022-08-19T04:52:46;99690.91;;;21.38;71.28
8229;BME280;4155;50.118;8.714;2022-08-19T04:55:19;99695.81;;;21.41;71.03
8229;BME280;4155;50.118;8.714;2022-08-19T04:57:46;99695.78;;;21.46;70.84
8229;BME280;4155;50.118;8.714;2022-08-19T05:00:15;99690.88;;;21.43;70.76
8229;BME280;4155;50.118;8.714;2022-08-19T05:02:43;99699.31;;;21.61;70.68
8229;BME280;4155;50.118;8.714;2022-08-19T05:05:10;99701.50;;;21.59;70.48
8229;BME280;4155;50.118;8.714;2022-08-19T05:07:38;99702.81;;;21.72;69.59
8229;BME280;4155;50.118;8.714;2022-08-19T05:10:07;99698.44;;;21.81;69.48
8229;BME280;4155;50.118;8.714;2022-08-19T05:12:37;99689.41;;;21.86;69.10
8229;BME280;4155;50.118;8.714;2022-08-19T05:15:06;99694.53;;;22.03;68.80
8229;BME280;4155;50.118;8.714;2022-08-19T05:17:34;99692.59;;;22.08;68.51
8229;BME280;4155;50.118;8.714;2022-08-19T05:20:07;99698.03;;;22.18;68.09
8229;BME280;4155;50.118;8.714;2022-08-19T05:22:52;99703.72;;;22.22;68.41
8229;BME280;4155;50.118;8.714;2022-08-19T05:25:21;99694.94;;;22.35;67.86
8229;BME280;4155;50.118;8.714;2022-08-19T05:27:52;99704.69;;;22.46;67.10
8229;BME280;4155;50.118;8.714;2022-08-19T05:30:20;99712.56;;;22.58;67.00
8229;BME280;4155;50.118;8.714;2022-08-19T05:33:07;99707.97;;;22.48;66.99
8229;BME280;4155;50.118;8.714;2022-08-19T05:35:38;99708.41;;;22.66;66.43
8229;BME280;4155;50.118;8.714;2022-08-19T05:38:09;99717.03;;;22.88;66.35
8229;BME280;4155;50.118;8.714;2022-08-19T05:40:37;99718.94;;;22.88;65.98
8229;BME280;4155;50.118;8.714;2022-08-19T05:43:07;99716.72;;;22.90;65.53
8229;BME280;4155;50.118;8.714;2022-08-19T05:45:38;99714.94;;;23.09;65.00
8229;BME280;4155;50.118;8.714;2022-08-19T05:48:06;99715.59;;;23.25;64.56
8229;BME280;4155;50.118;8.714;2022-08-19T05:50:38;99717.47;;;23.63;63.31
8229;BME280;4155;50.118;8.714;2022-08-19T05:53:06;99719.56;;;23.95;62.49
8229;BME280;4155;50.118;8.714;2022-08-19T05:55:35;99714.97;;;24.10;61.88
8229;BME280;4155;50.118;8.714;2022-08-19T05:58:04;99718.97;;;24.41;60.91
8229;BME280;4155;50.118;8.714;2022-08-19T06:00:36;99722.47;;;24.66;59.91
8229;BME280;4155;50.118;8.714;2022-08-19T06:03:04;99729.72;;;24.75;59.64
8229;BME280;4155;50.118;8.714;2022-08-19T06:05:39;99736.50;;;25.34;58.06
8229;BME280;4155;50.118;8.714;2022-08-19T06:08:15;99731.53;;;25.50;57.44
8229;BME280;4155;50.118;8.714;2022-08-19T06:10:44;99734.66;;;25.90;56.31
8229;BME280;4155;50.118;8.714;2022-08-19T06:13:12;99740.97;;;25.90;55.71
8229;BME280;4155;50.118;8.714;2022-08-19T06:15:41;99737.06;;;26.46;55.13
8229;BME280;4155;50.118;8.714;2022-08-19T06:18:10;99744.53;;;26.82;53.86
8229;BME280;4155;50.118;8.714;2022-08-19T06:20:38;99742.94;;;27.03;53.35
8229;BME280;4155;50.118;8.714;2022-08-19T06:23:21;99747.19;;;26.73;53.48
8229;BME280;4155;50.118;8.714;2022-08-19T06:25:49;99746.16;;;26.06;54.80
8229;BME280;4155;50.118;8.714;2022-08-19T06:28:17;99743.03;;;25.52;55.98
8229;BME280;4155;50.118;8.714;2022-08-19T06:30:46;99740.00;;;25.21;57.89
8229;BME280;4155;50.118;8.714;2022-08-19T06:33:14;99743.59;;;24.84;58.55
8229;BME280;4155;50.118;8.714;2022-08-19T06:35:44;99748.72;;;24.72;59.11
8229;BME280;4155;50.118;8.714;2022-08-19T06:38:14;99752.78;;;24.93;58.81
8229;BME280;4155;50.118;8.714;2022-08-19T06:40:42;99756.25;;;24.99;58.51
8229;BME280;4155;50.118;8.714;2022-08-19T06:43:10;99769.44;;;24.97;58.79
8229;BME280;4155;50.118;8.714;2022-08-19T06:45:39;99773.59;;;25.32;57.35
8229;BME280;4155;50.118;8.714;2022-08-19T06:48:08;99772.53;;;25.60;56.69
8229;BME280;4155;50.118;8.714;2022-08-19T06:50:37;99767.03;;;25.47;57.00
8229;BME280;4155;50.118;8.714;2022-08-19T06:53:06;99760.50;;;25.75;56.54
8229;BME280;4155;50.118;8.714;2022-08-19T06:55:34;99774.31;;;26.66;54.29
8229;BME280;4155;50.118;8.714;2022-08-19T06:58:02;99787.09;;;27.43;51.91
8229;BME280;4155;50.118;8.714;2022-08-19T07:00:32;99777.81;;;27.92;50.09
8229;BME280;4155;50.118;8.714;2022-08-19T07:03:00;99776.38;;;27.95;49.40
8229;BME280;4155;50.118;8.714;2022-08-19T07:05:39;99777.16;;;27.64;50.17
8229;BME280;4155;50.118;8.714;2022-08-19T07:08:12;99764.16;;;27.79;50.10
8229;BME280;4155;50.118;8.714;2022-08-19T07:10:43;99772.53;;;28.05;49.35
8229;BME280;4155;50.118;8.714;2022-08-19T07:13:11;99766.19;;;28.44;48.52
8229;BME280;4155;50.118;8.714;2022-08-19T07:15:38;99780.34;;;28.86;48.06
8229;BME280;4155;50.118;8.714;2022-08-19T07:18:08;99779.75;;;29.15;46.84
8229;BME280;4155;50.118;8.714;2022-08-19T07:20:39;99776.75;;;28.50;48.26
8229;BME280;4155;50.118;8.714;2022-08-19T07:23:08;99771.63;;;28.18;48.71
8229;BME280;4155;50.118;8.714;2022-08-19T07:25:42;99783.41;;;27.48;50.54
8229;BME280;4155;50.118;8.714;2022-08-19T07:28:18;99774.59;;;27.15;50.58
8229;BME280;4155;50.118;8.714;2022-08-19T07:30:50;99779.84;;;27.02;51.68
8229;BME280;4155;50.118;8.714;2022-08-19T07:33:18;99779.84;;;27.25;50.50
8229;BME280;4155;50.118;8.714;2022-08-19T07:35:48;99778.88;;;27.52;49.64
8229;BME280;4155;50.118;8.714;2022-08-19T07:38:16;99769.25;;;28.34;48.43
8229;BME280;4155;50.118;8.714;2022-08-19T07:40:44;99778.56;;;28.64;47.00
8229;BME280;4155;50.118;8.714;2022-08-19T07:43:13;99779.06;;;29.26;46.25
8229;BME280;4155;50.118;8.714;2022-08-19T07:45:43;99778.59;;;29.24;45.11
8229;BME280;4155;50.118;8.714;2022-08-19T07:48:11;99778.88;;;28.62;46.72
8229;BME280;4155;50.118;8.714;2022-08-19T07:50:39;99773.19;;;28.10;48.08
8229;BME280;4155;50.118;8.714;2022-08-19T07:53:08;99776.13;;;29.40;45.80
8229;BME280;4155;50.118;8.714;2022-08-19T07:55:36;99774.28;;;30.17;43.63
8229;BME280;4155;50.118;8.714;2022-08-19T07:58:09;99784.53;;;30.46;42.74
8229;BME280;4155;50.118;8.714;2022-08-19T08:00:37;99777.91;;;30.68;42.01
8229;BME280;4155;50.118;8.714;2022-08-19T08:03:05;99783.03;;;30.78;42.03
8229;BME280;4155;50.118;8.714;2022-08-19T08:05:33;99784.44;;;31.26;41.52
8229;BME280;4155;50.118;8.714;2022-08-19T08:08:20;99789.06;;;32.24;39.76
8229;BME280;4155;50.118;8.714;2022-08-19T08:11:15;99782.81;;;32.52;38.57
8229;BME280;4155;50.118;8.714;2022-08-19T08:13:46;99768.94;;;32.15;39.10
8229;BME280;4155;50.118;8.714;2022-08-19T08:16:30;99769.41;;;32.17;39.28
8229;BME280;4155;50.118;8.714;2022-08-19T08:19:00;99782.88;;;32.92;38.54
8229;BME280;4155;50.118;8.714;2022-08-19T08:21:33;99787.53;;;32.76;38.29
8229;BME280;4155;50.118;8.714;2022-08-19T08:24:03;99782.06;;;31.70;39.83
8229;BME280;4155;50.118;8.714;2022-08-19T08:26:30;99778.78;;;31.22;40.49
8229;BME280;4155;50.118;8.714;2022-08-19T08:29:00;99783.19;;;31.23;40.92
8229;BME280;4155;50.118;8.714;2022-08-19T08:31:38;99781.94;;;31.12;40.79
8229;BME280;4155;50.118;8.714;2022-08-19T08:34:06;99788.44;;;31.16;41.38
8229;BME280;4155;50.118;8.714;2022-08-19T08:36:36;99789.13;;;30.42;42.19
8229;BME280;4155;50.118;8.714;2022-08-19T08:39:08;99786.59;;;30.28;42.49
8229;BME280;4155;50.118;8.714;2022-08-19T08:41:43;99790.97;;;30.59;42.34
8229;BME280;4155;50.118;8.714;2022-08-19T08:44:15;99786.38;;;29.48;42.67
8229;BME280;4155;50.118;8.714;2022-08-19T08:46:49;99780.34;;;28.86;44.52
8229;BME280;4155;50.118;8.714;2022-08-19T08:49:26;99783.34;;;28.32;45.37
8229;BME280;4155;50.118;8.714;2022-08-19T08:52:00;99785.09;;;28.28;46.12
8229;BME280;4155;50.118;8.714;2022-08-19T08:54:35;99788.56;;;28.03;46.51
8229;BME280;4155;50.118;8.714;2022-08-19T08:57:09;99793.94;;;27.68;47.04
8229;BME280;4155;50.118;8.714;2022-08-19T08:59:40;99788.47;;;27.85;46.88
8229;BME280;4155;50.118;8.714;2022-08-19T09:02:09;99786.22;;;28.18;46.54
8229;BME280;4155;50.118;8.714;2022-08-19T09:04:37;99780.84;;;28.22;46.04
8229;BME280;4155;50.118;8.714;2022-08-19T09:07:19;99786.84;;;28.15;46.26
8229;BME280;4155;50.118;8.714;2022-08-19T09:10:10;99785.56;;;28.21;46.13
8229;BME280;4155;50.118;8.714;2022-08-19T09:12:48;99787.47;;;28.78;45.60
8229;BME280;4155;50.118;8.714;2022-08-19T09:15:27;99785.06;;;29.54;44.22
8229;BME280;4155;50.118;8.714;2022-08-19T09:18:03;99779.50;;;29.63;43.04
8229;BME280;4155;50.118;8.714;2022-08-19T09:20:32;99776.63;;;29.51;42.91
8229;BME280;4155;50.118;8.714;2022-08-19T09:23:00;99769.22;;;29.81;42.34
8229;BME280;4155;50.118;8.714;2022-08-19T09:25:29;99769.50;;;29.88;42.01
8229;BME280;4155;50.118;8.714;2022-08-19T09:28:01;99774.84;;;29.12;43.68
8229;BME280;4155;50.118;8.714;2022-08-19T09:30:40;99761.47;;;28.44;44.83
8229;BME280;4155;50.118;8.714;2022-08-19T09:33:08;99767.31;;;28.43;45.59
8229;BME280;4155;50.118;8.714;2022-08-19T09:35:36;99774.75;;;28.34;45.93
8229;BME280;4155;50.118;8.714;2022-08-19T09:38:19;99776.53;;;28.38;45.81
8229;BME280;4155;50.118;8.714;2022-08-19T09:40:48;99782.78;;;28.61;45.47
8229;BME280;4155;50.118;8.714;2022-08-19T09:43:17;99774.09;;;28.37;46.25
8229;BME280;4155;50.118;8.714;2022-08-19T09:46:00;99771.41;;;27.75;48.01
8229;BME280;4155;50.118;8.714;2022-08-19T09:48:28;99773.75;;;27.59;48.35
8229;BME280;4155;50.118;8.714;2022-08-19T09:51:03;99778.66;;;27.39;48.47
8229;BME280;4155;50.118;8.714;2022-08-19T09:53:31;99781.97;;;27.28;48.53
8229;BME280;4155;50.118;8.714;2022-08-19T09:56:01;99774.84;;;27.27;49.19
8229;BME280;4155;50.118;8.714;2022-08-19T09:58:29;99773.25;;;27.57;48.37
8229;BME280;4155;50.118;8.714;2022-08-19T10:00:59;99774.06;;;27.57;47.46
8229;BME280;4155;50.118;8.714;2022-08-19T10:03:29;99775.44;;;27.69;47.30
8229;BME280;4155;50.118;8.714;2022-08-19T10:05:59;99765.66;;;27.62;47.03
8229;BME280;4155;50.118;8.714;2022-08-19T10:08:30;99783.47;;;28.18;47.01
8229;BME280;4155;50.118;8.714;2022-08-19T10:11:01;99772.63;;;27.91;47.66
8229;BME280;4155;50.118;8.714;2022-08-19T10:13:50;99777.88;;;28.01;47.09
8229;BME280;4155;50.118;8.714;2022-08-19T10:16:19;99774.41;;;27.87;46.92
8229;BME280;4155;50.118;8.714;2022-08-19T10:18:55;99781.63;;;27.74;47.70
8229;BME280;4155;50.118;8.714;2022-08-19T10:21:26;99789.25;;;28.17;46.36
8229;BME280;4155;50.118;8.714;2022-08-19T10:23:59;99782.72;;;28.35;46.54
8229;BME280;4155;50.118;8.714;2022-08-19T10:26:34;99780.81;;;28.70;46.15
8229;BME280;4155;50.118;8.714;2022-08-19T10:29:04;99772.16;;;28.29;45.58
8229;BME280;4155;50.118;8.714;2022-08-19T10:31:35;99759.09;;;27.72;47.05
8229;BME280;4155;50.118;8.714;2022-08-19T10:34:23;99762.03;;;27.76;46.44
8229;BME280;4155;50.118;8.714;2022-08-19T10:36:54;99759.25;;;28.15;46.26
8229;BME280;4155;50.118;8.714;2022-08-19T10:39:28;99756.00;;;28.62;44.33
8229;BME280;4155;50.118;8.714;2022-08-19T10:42:09;99752.72;;;29.29;43.94
8229;BME280;4155;50.118;8.714;2022-08-19T10:44:39;99753.81;;;29.45;42.63
8229;BME280;4155;50.118;8.714;2022-08-19T10:47:08;99746.53;;;29.58;42.22
8229;BME280;4155;50.118;8.714;2022-08-19T10:49:50;99749.50;;;29.35;43.10
8229;BME280;4155;50.118;8.714;2022-08-19T10:52:38;99750.97;;;28.90;44.33
8229;BME280;4155;50.118;8.714;2022-08-19T10:55:16;99754.03;;;28.79;45.03
8229;BME280;4155;50.118;8.714;2022-08-19T10:58:03;99750.69;;;28.25;45.23
8229;BME280;4155;50.118;8.714;2022-08-19T11:00:32;99742.03;;;28.01;46.25
8229;BME280;4155;50.118;8.714;2022-08-19T11:03:00;99737.44;;;27.88;46.42
8229;BME280;4155;50.118;8.714;2022-08-19T11:05:27;99743.72;;;28.19;45.84
8229;BME280;4155;50.118;8.714;2022-08-19T11:08:05;99742.19;;;28.62;43.86
8229;BME280;4155;50.118;8.714;2022-08-19T11:10:50;99731.47;;;28.86;43.82
8229;BME280;4155;50.118;8.714;2022-08-19T11:13:21;99728.88;;;29.07;43.80
8229;BME280;4155;50.118;8.714;2022-08-19T11:15:56;99724.84;;;28.96;43.75
8229;BME280;4155;50.118;8.714;2022-08-19T11:18:29;99724.16;;;28.64;43.77
8229;BME280;4155;50.118;8.714;2022-08-19T11:21:05;99713.19;;;28.16;43.00
8229;BME280;4155;50.118;8.714;2022-08-19T11:23:33;99709.13;;;28.13;43.60
8229;BME280;4155;50.118;8.714;2022-08-19T11:26:01;99694.28;;;28.40;42.95
8229;BME280;4155;50.118;8.714;2022-08-19T11:28:30;99701.25;;;28.81;42.75
8229;BME280;4155;50.118;8.714;2022-08-19T11:30:58;99686.41;;;29.37;41.83
8229;BME280;4155;50.118;8.714;2022-08-19T11:33:25;99689.38;;;29.79;41.33
8229;BME280;4155;50.118;8.714;2022-08-19T11:35:54;99679.16;;;30.01;41.27
8229;BME280;4155;50.118;8.714;2022-08-19T11:38:21;99681.38;;;30.16;40.45
8229;BME280;4155;50.118;8.714;2022-08-19T11:40:55;99693.72;;;29.89;41.17
8229;BME280;4155;50.118;8.714;2022-08-19T11:43:22;99690.97;;;29.33;42.29
8229;BME280;4155;50.118;8.714;2022-08-19T11:45:52;99688.94;;;29.04;41.63
8229;BME280;4155;50.118;8.714;2022-08-19T11:48:20;99693.59;;;29.13;41.98
8229;BME280;4155;50.118;8.714;2022-08-19T11:50:48;99694.06;;;29.23;41.15
8229;BME280;4155;50.118;8.714;2022-08-19T11:53:16;99684.00;;;29.74;40.82
8229;BME280;4155;50.118;8.714;2022-08-19T11:55:46;99690.41;;;29.95;39.73
8229;BME280;4155;50.118;8.714;2022-08-19T11:58:15;99689.75;;;30.28;38.80
8229;BME280;4155;50.118;8.714;2022-08-19T12:00:45;99674.16;;;29.94;39.76
8229;BME280;4155;50.118;8.714;2022-08-19T12:03:14;99682.50;;;29.85;40.74
8229;BME280;4155;50.118;8.714;2022-08-19T12:05:42;99678.84;;;29.64;41.15
8229;BME280;4155;50.118;8.714;2022-08-19T12:08:09;99686.81;;;29.10;41.82
8229;BME280;4155;50.118;8.714;2022-08-19T12:10:39;99694.13;;;28.54;42.31
8229;BME280;4155;50.118;8.714;2022-08-19T12:13:09;99680.97;;;28.42;41.81
8229;BME280;4155;50.118;8.714;2022-08-19T12:15:37;99682.38;;;28.22;41.26
8229;BME280;4155;50.118;8.714;2022-08-19T12:18:07;99675.63;;;28.46;41.40
8229;BME280;4155;50.118;8.714;2022-08-19T12:20:38;99675.94;;;28.88;40.51
8229;BME280;4155;50.118;8.714;2022-08-19T12:23:08;99672.56;;;29.46;39.38
8229;BME280;4155;50.118;8.714;2022-08-19T12:25:36;99676.69;;;29.78;38.28
8229;BME280;4155;50.118;8.714;2022-08-19T12:28:04;99673.63;;;30.01;38.34
8229;BME280;4155;50.118;8.714;2022-08-19T12:30:32;99672.19;;;29.65;39.02
8229;BME280;4155;50.118;8.714;2022-08-19T12:33:00;99665.97;;;29.21;40.76
8229;BME280;4155;50.118;8.714;2022-08-19T12:35:27;99664.44;;;28.94;40.21
8229;BME280;4155;50.118;8.714;2022-08-19T12:37:58;99659.72;;;28.95;40.31
8229;BME280;4155;50.118;8.714;2022-08-19T12:40:26;99658.47;;;29.30;39.76
8229;BME280;4155;50.118;8.714;2022-08-19T12:42:54;99659.94;;;29.75;39.10
8229;BME280;4155;50.118;8.714;2022-08-19T12:45:22;99664.72;;;29.95;38.84
8229;BME280;4155;50.118;8.714;2022-08-19T12:47:49;99661.94;;;29.65;37.00
8229;BME280;4155;50.118;8.714;2022-08-19T12:50:20;99648.16;;;29.01;38.38
8229;BME280;4155;50.118;8.714;2022-08-19T12:52:48;99652.75;;;28.71;39.26
8229;BME280;4155;50.118;8.714;2022-08-19T12:55:18;99660.03;;;28.76;39.54
8229;BME280;4155;50.118;8.714;2022-08-19T12:57:45;99652.38;;;28.99;38.79
8229;BME280;4155;50.118;8.714;2022-08-19T13:00:17;99654.09;;;29.29;38.37
8229;BME280;4155;50.118;8.714;2022-08-19T13:02:49;99660.84;;;29.87;37.62
8229;BME280;4155;50.118;8.714;2022-08-19T13:05:20;99656.38;;;30.04;37.60
8229;BME280;4155;50.118;8.714;2022-08-19T13:07:50;99659.75;;;30.09;37.71
8229;BME280;4155;50.118;8.714;2022-08-19T13:10:22;99657.88;;;29.63;38.60
8229;BME280;4155;50.118;8.714;2022-08-19T13:12:51;99658.66;;;29.25;39.07
8229;BME280;4155;50.118;8.714;2022-08-19T13:15:21;99657.13;;;28.90;39.90
8229;BME280;4155;50.118;8.714;2022-08-19T13:17:51;99661.03;;;28.71;39.54
8229;BME280;4155;50.118;8.714;2022-08-19T13:20:21;99666.69;;;28.66;39.83
8229;BME280;4155;50.118;8.714;2022-08-19T13:22:49;99660.50;;;28.87;39.19
8229;BME280;4155;50.118;8.714;2022-08-19T13:25:17;99670.91;;;28.98;38.39
8229;BME280;4155;50.118;8.714;2022-08-19T13:27:48;99677.69;;;29.18;37.44
8229;BME280;4155;50.118;8.714;2022-08-19T13:30:19;99674.94;;;29.65;36.65
8229;BME280;4155;50.118;8.714;2022-08-19T13:33:05;99669.69;;;29.81;36.48
8229;BME280;4155;50.118;8.714;2022-08-19T13:35:43;99676.47;;;30.42;35.66
8229;BME280;4155;50.118;8.714;2022-08-19T13:38:13;99673.13;;;30.91;34.77
8229;BME280;4155;50.118;8.714;2022-08-19T13:40:40;99677.69;;;30.74;35.87
8229;BME280;4155;50.118;8.714;2022-08-19T13:43:10;99675.06;;;30.78;35.66
8229;BME280;4155;50.118;8.714;2022-08-19T13:45:49;99664.94;;;30.94;35.24